createdAt,value
2018-02-19T00:01:03.457Z,215.27
2018-02-19T00:03:30.273Z,213.90
2018-02-19T00:05:57.045Z,202.30
2018-02-19T00:08:23.814Z,208.30
2018-02-19T00:10:50.601Z,214.40
2018-02-19T00:13:17.430Z,206.23
2018-02-19T00:15:44.233Z,212.10
2018-02-19T00:18:11.001Z,208.70
2018-02-19T00:20:37.778Z,219.13
2018-02-19T00:23:04.545Z,224.10
2018-02-19T00:25:31.313Z,208.10
2018-02-19T00:27:58.085Z,209.50
2018-02-19T00:30:24.863Z,213.23
2018-02-19T00:32:51.638Z,212.03
2018-02-19T00:35:18.413Z,208.40
2018-02-19T00:37:45.185Z,210.23
2018-02-19T00:40:11.949Z,193.37
2018-02-19T00:42:38.758Z,207.13
2018-02-19T00:45:05.524Z,201.07
2018-02-19T00:47:32.285Z,205.43
2018-02-19T00:49:59.099Z,197.67
2018-02-19T00:52:25.877Z,197.23
2018-02-19T00:54:52.637Z,190.90
2018-02-19T00:57:19.405Z,199.37
2018-02-19T00:59:46.181Z,191.37
2018-02-19T01:02:12.999Z,183.30
2018-02-19T01:04:39.772Z,195.00
2018-02-19T01:07:06.545Z,196.80
2018-02-19T01:09:33.313Z,192.23
2018-02-19T01:12:00.152Z,195.17
2018-02-19T01:14:26.942Z,198.60
2018-02-19T01:16:53.707Z,228.20
2018-02-19T01:19:20.481Z,233.93
2018-02-19T01:21:47.248Z,243.03
2018-02-19T01:24:14.027Z,195.23
2018-02-19T01:26:40.806Z,196.47
2018-02-19T01:29:07.572Z,205.83
2018-02-19T01:31:34.345Z,216.40
2018-02-19T01:34:01.113Z,204.90
2018-02-19T01:36:27.883Z,204.33
2018-02-19T01:38:54.750Z,211.27
2018-02-19T01:41:21.528Z,228.90
2018-02-19T01:43:48.333Z,235.50
2018-02-19T01:46:15.100Z,211.40
2018-02-19T01:48:41.868Z,222.40
2018-02-19T01:51:08.669Z,223.00
2018-02-19T01:53:35.432Z,226.80
2018-02-19T01:56:02.197Z,224.90
2018-02-19T01:58:28.964Z,235.90
2018-02-19T02:00:55.738Z,224.70
2018-02-19T02:03:22.545Z,241.70
2018-02-19T02:05:49.319Z,232.30
2018-02-19T02:08:16.081Z,251.77
2018-02-19T02:10:42.852Z,246.80
2018-02-19T02:13:09.617Z,235.77
2018-02-19T02:15:36.392Z,237.73
2018-02-19T02:18:03.172Z,260.60
2018-02-19T02:20:29.945Z,244.67
2018-02-19T02:22:56.756Z,240.23
2018-02-19T02:25:23.525Z,242.83
2018-02-19T02:27:50.325Z,240.27
2018-02-19T02:30:17.109Z,251.87
2018-02-19T02:32:43.876Z,252.77
2018-02-19T02:35:10.645Z,255.10
2018-02-19T02:37:37.424Z,237.13
2018-02-19T02:40:04.193Z,241.17
2018-02-19T02:42:30.965Z,230.27
2018-02-19T02:44:57.744Z,240.40
2018-02-19T02:47:24.558Z,242.80
2018-02-19T02:49:51.331Z,207.47
2018-02-19T02:52:18.098Z,208.40
2018-02-19T02:54:44.893Z,214.40
2018-02-19T02:57:11.668Z,216.93
2018-02-19T02:59:38.443Z,213.53
2018-02-19T03:02:05.248Z,202.37
2018-02-19T03:04:32.022Z,188.27
2018-02-19T03:06:58.788Z,206.67
2018-02-19T03:09:25.561Z,203.73
2018-02-19T03:11:52.327Z,212.20
2018-02-19T03:14:19.201Z,190.23
2018-02-19T03:16:45.969Z,187.90
2018-02-19T03:19:12.733Z,198.47
2018-02-19T03:21:39.512Z,185.20
2018-02-19T03:24:06.280Z,197.57
2018-02-19T03:26:33.056Z,211.97
2018-02-19T03:28:59.877Z,199.10
2018-02-19T03:31:26.649Z,206.97
2018-02-19T03:33:53.497Z,194.40
2018-02-19T03:36:20.259Z,195.87
2018-02-19T03:38:47.036Z,184.03
2018-02-19T03:41:13.849Z,185.80
2018-02-19T03:43:40.625Z,169.27
2018-02-19T03:46:07.389Z,180.67
2018-02-19T03:48:34.156Z,190.43
2018-02-19T03:51:00.916Z,190.30
2018-02-19T03:53:27.720Z,188.03
2018-02-19T03:55:54.485Z,176.23
2018-02-19T03:58:21.252Z,179.57
2018-02-19T04:00:48.049Z,168.87
2018-02-19T04:03:14.813Z,160.37
2018-02-19T04:05:41.582Z,150.43
2018-02-19T04:08:08.349Z,148.43
2018-02-19T04:10:35.113Z,130.40
2018-02-19T04:13:01.909Z,136.20
2018-02-19T04:15:28.709Z,133.87
2018-02-19T04:17:55.482Z,124.33
2018-02-19T04:20:22.245Z,134.20
2018-02-19T04:22:49.021Z,135.83
2018-02-19T04:25:15.789Z,127.20
2018-02-19T04:27:42.593Z,134.80
2018-02-19T04:30:09.357Z,133.70
2018-02-19T04:32:36.170Z,135.00
2018-02-19T04:35:02.954Z,131.13
2018-02-19T04:37:29.757Z,136.63
2018-02-19T04:39:56.602Z,132.87
2018-02-19T04:42:23.369Z,126.43
2018-02-19T04:44:51.986Z,127.07
2018-02-19T04:47:18.748Z,123.27
2018-02-19T04:49:45.577Z,118.60
2018-02-19T04:52:12.341Z,103.13
2018-02-19T04:54:39.109Z,110.03
2018-02-19T04:57:05.911Z,109.70
2018-02-19T04:59:32.676Z,100.13
2018-02-19T05:01:59.436Z,92.87
2018-02-19T05:04:26.205Z,104.20
2018-02-19T05:06:52.973Z,90.47
2018-02-19T05:09:19.765Z,94.70
2018-02-19T05:11:46.525Z,93.67
2018-02-19T05:14:13.301Z,96.10
2018-02-19T05:16:40.068Z,105.80
2018-02-19T05:19:06.828Z,98.87
2018-02-19T05:21:33.622Z,98.40
2018-02-19T05:24:00.401Z,95.20
2018-02-19T05:26:27.161Z,99.73
2018-02-19T05:28:53.962Z,87.53
2018-02-19T05:31:20.720Z,80.47
2018-02-19T05:33:47.483Z,78.77
2018-02-19T05:36:14.469Z,82.37
2018-02-19T05:38:41.277Z,77.90
2018-02-19T05:41:08.037Z,72.37
2018-02-19T05:43:34.837Z,75.83
2018-02-19T05:46:01.601Z,68.93
2018-02-19T05:48:28.373Z,69.10
2018-02-19T05:50:55.189Z,69.73
2018-02-19T05:53:21.948Z,70.83
2018-02-19T05:55:48.711Z,74.70
2018-02-19T05:58:15.550Z,70.33
2018-02-19T06:00:42.311Z,71.10
2018-02-19T06:03:09.214Z,68.60
2018-02-19T06:05:36.092Z,63.43
2018-02-19T06:08:02.862Z,64.80
2018-02-19T06:10:29.629Z,65.47
2018-02-19T06:12:56.429Z,68.17
2018-02-19T06:15:23.243Z,67.87
2018-02-19T06:17:50.076Z,66.50
2018-02-19T06:20:17.035Z,76.90
2018-02-19T06:22:43.789Z,71.27
2018-02-19T06:25:10.545Z,62.87
2018-02-19T06:27:37.345Z,58.70
2018-02-19T06:30:04.141Z,61.53
2018-02-19T06:32:30.941Z,59.93
2018-02-19T06:34:57.746Z,58.27
2018-02-19T06:37:24.509Z,60.90
2018-02-19T06:39:51.268Z,56.23
2018-02-19T06:42:18.074Z,59.07
2018-02-19T06:44:44.832Z,59.60
2018-02-19T06:47:11.621Z,54.70
2018-02-19T06:49:38.388Z,59.03
2018-02-19T06:52:05.153Z,62.60
2018-02-19T06:54:31.944Z,62.93
2018-02-19T06:56:58.701Z,63.03
2018-02-19T06:59:25.456Z,71.27
2018-02-19T07:01:52.229Z,61.03
2018-02-19T07:04:18.997Z,61.37
2018-02-19T07:06:45.792Z,58.00
2018-02-19T07:09:12.549Z,56.80
2018-02-19T07:11:39.308Z,53.77
2018-02-19T07:14:06.105Z,54.50
2018-02-19T07:16:32.864Z,60.97
2018-02-19T07:18:59.625Z,54.90
2018-02-19T07:21:26.434Z,58.97
2018-02-19T07:23:53.189Z,56.97
2018-02-19T07:26:19.956Z,55.20
2018-02-19T07:28:46.728Z,54.77
2018-02-19T07:31:13.645Z,61.07
2018-02-19T07:33:40.404Z,56.50
2018-02-19T07:36:07.181Z,59.27
2018-02-19T07:38:33.969Z,55.10
2018-02-19T07:41:00.737Z,51.87
2018-02-19T07:43:27.511Z,55.37
2018-02-19T07:45:54.283Z,64.20
2018-02-19T07:48:21.064Z,59.97
2018-02-19T07:50:47.824Z,58.43
2018-02-19T07:53:14.670Z,60.33
2018-02-19T07:55:42.041Z,59.60
2018-02-19T07:58:08.805Z,60.60
2018-02-19T08:00:35.635Z,59.77
2018-02-19T08:03:02.402Z,58.40
2018-02-19T08:05:29.203Z,57.27
2018-02-19T08:07:55.994Z,59.97
2018-02-19T08:10:22.792Z,53.90
2018-02-19T08:12:49.593Z,55.47
2018-02-19T08:15:16.397Z,53.83
2018-02-19T08:17:43.212Z,57.87
2018-02-19T08:20:10.017Z,53.80
2018-02-19T08:22:36.778Z,58.90
2018-02-19T08:25:03.536Z,58.57
2018-02-19T08:27:30.351Z,60.03
2018-02-19T08:29:57.146Z,62.50
2018-02-19T08:32:23.907Z,49.03
2018-02-19T08:34:50.669Z,56.63
2018-02-19T08:37:17.511Z,59.27
2018-02-19T08:39:44.337Z,54.43
2018-02-19T08:42:11.108Z,54.07
2018-02-19T08:44:38.023Z,52.73
2018-02-19T08:47:05.056Z,49.03
2018-02-19T08:49:31.841Z,51.83
2018-02-19T08:51:58.604Z,48.80
2018-02-19T08:54:25.412Z,56.23
2018-02-19T08:56:52.265Z,54.83
2018-02-19T08:59:19.021Z,52.23
2018-02-19T09:01:45.789Z,67.90
2018-02-19T09:04:12.556Z,61.63
2018-02-19T09:06:39.365Z,55.03
2018-02-19T09:09:06.171Z,54.90
2018-02-19T09:11:32.930Z,57.30
2018-02-19T09:13:59.697Z,56.07
2018-02-19T09:16:26.460Z,51.13
2018-02-19T09:18:53.260Z,48.23
2018-02-19T09:21:20.021Z,53.43
2018-02-19T09:23:46.794Z,51.90
2018-02-19T09:26:13.573Z,52.40
2018-02-19T09:28:40.342Z,55.47
2018-02-19T09:31:07.156Z,53.83
2018-02-19T09:33:33.936Z,54.93
2018-02-19T09:36:00.709Z,52.00
2018-02-19T09:38:27.503Z,55.87
2018-02-19T09:40:54.260Z,55.37
2018-02-19T09:43:21.027Z,53.17
2018-02-19T09:45:47.840Z,48.00
2018-02-19T09:48:14.605Z,55.83
2018-02-19T09:50:41.381Z,60.17
2018-02-19T09:53:08.149Z,58.40
2018-02-19T09:55:34.961Z,66.80
2018-02-19T09:58:01.737Z,58.37
2018-02-19T10:00:28.469Z,64.17
2018-02-19T10:02:55.274Z,66.47
2018-02-19T10:05:22.034Z,72.53
2018-02-19T10:07:48.797Z,61.00
2018-02-19T10:10:15.570Z,72.67
2018-02-19T10:12:42.338Z,69.97
2018-02-19T10:15:09.137Z,64.80
2018-02-19T10:17:35.897Z,68.90
2018-02-19T10:20:02.666Z,71.03
2018-02-19T10:22:29.465Z,81.53
2018-02-19T10:24:56.225Z,67.93
2018-02-19T10:27:22.993Z,70.17
2018-02-19T10:29:49.788Z,63.80
2018-02-19T10:32:16.579Z,66.17
2018-02-19T10:34:43.341Z,70.40
2018-02-19T10:37:10.133Z,66.80
2018-02-19T10:39:36.959Z,69.17
2018-02-19T10:42:03.709Z,66.97
2018-02-19T10:44:30.501Z,65.83
2018-02-19T10:46:57.265Z,68.60
2018-02-19T10:49:24.030Z,76.90
2018-02-19T10:51:50.850Z,70.93
2018-02-19T10:54:17.605Z,68.10
2018-02-19T10:56:44.370Z,58.13
2018-02-19T10:59:11.133Z,55.93
2018-02-19T11:01:37.895Z,52.27
2018-02-19T11:04:04.731Z,61.90
2018-02-19T11:06:31.492Z,48.33
2018-02-19T11:08:58.257Z,45.90
2018-02-19T11:11:25.063Z,51.77
2018-02-19T11:13:51.828Z,56.70
2018-02-19T11:16:18.592Z,54.50
2018-02-19T11:18:45.404Z,52.43
2018-02-19T11:21:12.181Z,58.70
2018-02-19T11:23:38.944Z,50.20
2018-02-19T11:26:05.761Z,64.27
2018-02-19T11:28:32.537Z,61.73
2018-02-19T11:30:59.297Z,51.27
2018-02-19T11:33:26.057Z,49.73
2018-02-19T11:35:52.902Z,42.77
2018-02-19T11:38:19.708Z,42.87
2018-02-19T11:40:46.497Z,42.00
2018-02-19T11:43:13.269Z,35.53
2018-02-19T11:45:40.119Z,44.07
2018-02-19T11:48:06.883Z,42.70
2018-02-19T11:50:33.641Z,49.50
2018-02-19T11:53:00.475Z,40.80
2018-02-19T11:55:27.237Z,36.33
2018-02-19T11:57:54.002Z,35.33
2018-02-19T12:00:20.865Z,42.20
2018-02-19T12:02:47.646Z,34.47
2018-02-19T12:05:14.422Z,36.40
2018-02-19T12:07:41.213Z,28.20
2018-02-19T12:10:07.985Z,32.93
2018-02-19T12:12:34.761Z,36.27
2018-02-19T12:15:01.525Z,33.63
2018-02-19T12:17:28.338Z,33.73
2018-02-19T12:19:55.137Z,33.00
2018-02-19T12:22:21.909Z,34.90
2018-02-19T12:24:48.670Z,45.13
2018-02-19T12:27:15.433Z,62.77
2018-02-19T12:29:42.212Z,38.53
2018-02-19T12:32:08.981Z,41.37
2018-02-19T12:34:35.798Z,37.80
2018-02-19T12:37:02.594Z,39.23
2018-02-19T12:39:29.393Z,41.37
2018-02-19T12:41:56.191Z,45.67
2018-02-19T12:44:22.954Z,40.97
2018-02-19T12:46:49.777Z,44.77
2018-02-19T12:49:16.585Z,61.13
2018-02-19T12:51:43.349Z,50.87
2018-02-19T12:54:10.112Z,44.93
2018-02-19T12:56:36.905Z,54.07
2018-02-19T12:59:03.672Z,51.23
2018-02-19T13:01:30.435Z,50.93
2018-02-19T13:03:57.232Z,48.83
2018-02-19T13:06:23.998Z,45.03
2018-02-19T13:08:50.789Z,44.10
2018-02-19T13:11:17.621Z,43.23
2018-02-19T13:13:44.385Z,44.23
2018-02-19T13:16:11.144Z,43.53
2018-02-19T13:18:37.941Z,37.27
2018-02-19T13:21:04.707Z,44.47
2018-02-19T13:23:31.472Z,59.70
2018-02-19T13:25:58.277Z,71.73
2018-02-19T13:28:25.041Z,38.30
2018-02-19T13:30:51.805Z,61.93
2018-02-19T13:33:18.569Z,34.80
2018-02-19T13:35:45.330Z,48.03
2018-02-19T13:38:12.151Z,43.73
2018-02-19T13:40:38.914Z,44.47
2018-02-19T13:43:05.714Z,37.83
2018-02-19T13:45:32.493Z,35.17
2018-02-19T13:47:59.306Z,39.03
2018-02-19T13:50:26.117Z,31.20
2018-02-19T13:52:52.873Z,30.00
2018-02-19T13:55:19.637Z,39.97
2018-02-19T13:57:46.401Z,32.60
2018-02-19T14:00:13.157Z,36.70
2018-02-19T14:02:39.961Z,37.43
2018-02-19T14:05:06.720Z,44.23
2018-02-19T14:07:33.483Z,35.33
2018-02-19T14:10:00.276Z,37.77
2018-02-19T14:12:27.045Z,41.30
2018-02-19T14:14:53.814Z,40.73
2018-02-19T14:17:20.611Z,35.63
2018-02-19T14:19:47.377Z,39.43
2018-02-19T14:22:14.135Z,37.13
2018-02-19T14:24:40.977Z,41.63
2018-02-19T14:27:07.760Z,37.10
2018-02-19T14:29:34.539Z,35.60
2018-02-19T14:32:01.345Z,46.13
2018-02-19T14:34:28.117Z,46.10
2018-02-19T14:36:54.907Z,51.67
2018-02-19T14:39:21.701Z,42.80
2018-02-19T14:41:48.465Z,44.77
2018-02-19T14:44:15.223Z,38.20
2018-02-19T14:46:41.997Z,37.47
2018-02-19T14:49:08.822Z,38.57
2018-02-19T14:51:35.585Z,36.50
2018-02-19T14:54:02.345Z,53.47
2018-02-19T14:56:31.846Z,39.03
2018-02-19T14:58:58.600Z,39.90
2018-02-19T15:01:25.396Z,39.53
2018-02-19T15:03:52.197Z,39.73
2018-02-19T15:06:20.722Z,47.37
2018-02-19T15:08:47.481Z,41.43
2018-02-19T15:11:14.249Z,39.13
2018-02-19T15:13:41.052Z,39.20
2018-02-19T15:16:07.878Z,41.53
2018-02-19T15:18:34.641Z,49.43
2018-02-19T15:21:01.441Z,47.70
2018-02-19T15:23:28.197Z,50.30
2018-02-19T15:25:54.958Z,49.67
2018-02-19T15:28:21.761Z,47.90
2018-02-19T15:30:48.524Z,47.87
2018-02-19T15:33:15.285Z,34.70
2018-02-19T15:35:42.113Z,48.53
2018-02-19T15:38:08.871Z,48.10
2018-02-19T15:40:35.641Z,51.83
2018-02-19T15:43:02.445Z,56.77
2018-02-19T15:45:29.209Z,48.67
2018-02-19T15:47:55.981Z,40.27
2018-02-19T15:50:22.783Z,29.33
2018-02-19T15:52:49.547Z,25.33
2018-02-19T15:55:16.313Z,27.20
2018-02-19T15:57:43.144Z,25.57
2018-02-19T16:00:09.945Z,22.70
2018-02-19T16:02:36.705Z,26.77
2018-02-19T16:05:03.467Z,26.97
2018-02-19T16:07:30.268Z,31.13
2018-02-19T16:09:57.045Z,32.40
2018-02-19T16:12:23.849Z,32.20
2018-02-19T16:14:50.656Z,32.83
2018-02-19T16:17:17.421Z,31.83
2018-02-19T16:19:44.185Z,26.67
2018-02-19T16:22:10.994Z,32.73
2018-02-19T16:24:37.781Z,31.57
2018-02-19T16:27:04.537Z,30.43
2018-02-19T16:29:31.478Z,24.60
2018-02-19T16:31:58.924Z,28.37
2018-02-19T16:34:25.685Z,33.13
2018-02-19T16:36:52.542Z,33.30
2018-02-19T16:39:19.306Z,30.47
2018-02-19T16:41:46.065Z,31.43
2018-02-19T16:44:12.867Z,27.60
2018-02-19T16:46:39.638Z,31.43
2018-02-19T16:49:06.516Z,31.27
2018-02-19T16:51:33.285Z,29.43
2018-02-19T16:54:00.052Z,22.77
2018-02-19T16:56:26.819Z,28.43
2018-02-19T16:58:53.586Z,34.73
2018-02-19T17:01:20.390Z,43.33
2018-02-19T17:03:47.157Z,52.47
2018-02-19T17:06:13.927Z,44.10
2018-02-19T17:08:40.719Z,39.03
2018-02-19T17:11:07.553Z,38.57
2018-02-19T17:13:34.331Z,38.73
2018-02-19T17:16:01.192Z,32.27
2018-02-19T17:18:27.956Z,34.13
2018-02-19T17:20:54.722Z,34.23
2018-02-19T17:23:21.491Z,29.40
2018-02-19T17:25:48.270Z,38.10
2018-02-19T17:28:15.030Z,45.93
2018-02-19T17:30:42.094Z,52.07
2018-02-19T17:33:08.860Z,32.43
2018-02-19T17:35:35.621Z,32.00
2018-02-19T17:38:02.443Z,32.73
2018-02-19T17:40:29.211Z,35.57
2018-02-19T17:42:55.988Z,37.83
2018-02-19T17:45:22.786Z,50.77
2018-02-19T17:47:49.567Z,39.33
2018-02-19T17:50:16.369Z,31.37
2018-02-19T17:52:43.159Z,29.63
2018-02-19T17:55:09.928Z,29.83
2018-02-19T17:57:36.730Z,29.10
2018-02-19T18:00:03.573Z,31.87
2018-02-19T18:02:30.350Z,33.57
2018-02-19T18:04:57.158Z,41.23
2018-02-19T18:07:23.948Z,36.07
2018-02-19T18:09:50.732Z,31.03
2018-02-19T18:12:17.574Z,28.47
2018-02-19T18:14:44.349Z,50.03
2018-02-19T18:17:11.113Z,35.40
2018-02-19T18:19:38.690Z,31.77
2018-02-19T18:22:05.514Z,26.00
2018-02-19T18:24:32.277Z,30.40
2018-02-19T18:26:59.057Z,25.23
2018-02-19T18:29:25.838Z,27.50
2018-02-19T18:31:52.597Z,24.87
2018-02-19T18:34:19.366Z,26.97
2018-02-19T18:36:46.226Z,24.50
2018-02-19T18:39:13.033Z,24.87
2018-02-19T18:41:39.813Z,26.40
2018-02-19T18:44:06.571Z,16.93
2018-02-19T18:46:33.373Z,21.77
2018-02-19T18:49:00.136Z,20.33
2018-02-19T18:51:26.899Z,18.87
2018-02-19T18:53:53.673Z,19.00
2018-02-19T18:56:20.430Z,21.20
2018-02-19T18:58:47.241Z,25.27
2018-02-19T19:01:14.012Z,23.47
2018-02-19T19:03:40.773Z,24.57
2018-02-19T19:06:07.570Z,28.67
2018-02-19T19:08:40.201Z,34.20
2018-02-19T19:11:06.962Z,17.40
2018-02-19T19:13:33.762Z,20.80
2018-02-19T19:16:00.521Z,21.20
2018-02-19T19:18:27.280Z,24.27
2018-02-19T19:20:54.074Z,27.73
2018-02-19T19:23:20.839Z,51.27
2018-02-19T19:25:47.603Z,20.63
2018-02-19T19:28:15.160Z,21.27
2018-02-19T19:30:41.926Z,18.33
2018-02-19T19:33:08.705Z,26.43
2018-02-19T19:35:35.477Z,20.73
2018-02-19T19:38:02.233Z,16.83
2018-02-19T19:40:28.997Z,18.63
2018-02-19T19:42:55.757Z,17.23
2018-02-19T19:45:22.577Z,21.90
2018-02-19T19:47:49.337Z,22.67
2018-02-19T19:50:16.194Z,27.73
2018-02-19T19:52:42.960Z,18.47
2018-02-19T19:55:09.721Z,23.17
2018-02-19T19:57:36.482Z,36.17
2018-02-19T20:00:03.342Z,25.90
2018-02-19T20:02:30.132Z,19.00
2018-02-19T20:04:56.938Z,25.47
2018-02-19T20:07:23.729Z,21.33
2018-02-19T20:09:50.489Z,31.63
2018-02-19T20:12:17.305Z,16.03
2018-02-19T20:14:44.129Z,18.17
2018-02-19T20:17:10.889Z,15.50
2018-02-19T20:19:37.828Z,13.77
2018-02-19T20:22:04.610Z,18.30
2018-02-19T20:24:31.409Z,22.30
2018-02-19T20:26:58.201Z,25.87
2018-02-19T20:29:25.000Z,23.67
2018-02-19T20:31:51.771Z,20.50
2018-02-19T20:34:18.533Z,21.83
2018-02-19T20:36:45.374Z,21.40
2018-02-19T20:39:12.154Z,20.13
2018-02-19T20:41:38.918Z,23.30
2018-02-19T20:44:05.721Z,22.83
2018-02-19T20:46:32.552Z,22.67
2018-02-19T20:48:59.294Z,22.90
2018-02-19T20:51:26.071Z,24.57
2018-02-19T20:53:52.841Z,26.63
2018-02-19T20:56:19.605Z,21.17
2018-02-19T20:58:46.410Z,27.67
2018-02-19T21:01:13.177Z,24.73
2018-02-19T21:03:39.958Z,23.37
2018-02-19T21:06:06.785Z,24.50
2018-02-19T21:08:33.557Z,32.27
2018-02-19T21:11:00.371Z,31.00
2018-02-19T21:13:27.198Z,24.07
2018-02-19T21:15:53.961Z,25.93
2018-02-19T21:18:20.750Z,22.33
